Time;durP1;ratioP1;P1;durP2;ratioP2;P2;SDS_P1;SDS_P2;PMS_P1;PMS_P2;Temp;Humidity;BMP_temperature;BMP_pressure;BME280_temperature;BME280_humidity;BME280_pressure;Samples;Min_cycle;Max_cycle;Signal;HPM_P1;HPM_P2
2022/11/02 00:00:14;;;;;;;;;;;;;;;;;;352858;28;955;-66
2022/11/02 00:00:24;;;;;;;;;;;;;;;;;;352868;28;995;-66
2022/11/02 00:00:34;;;;;;;;;;;;;;;;;;353280;27;928;-67
2022/11/02 00:00:45;;;;;;;;;;;;;;;;;;354351;27;840;-67
2022/11/02 00:00:56;;;;;;;;;;;;;;;;;;354392;27;888;-67
2022/11/02 00:01:26;;;;;;;;;;;;;;;;;;354378;27;1100;-67
2022/11/02 00:01:39;;;;;;;;;;;;;;;;;;354285;27;936;-67
2022/11/02 00:01:49;;;;;;;;;;;;;;;;;;354394;27;794;-67
2022/11/02 00:01:59;;;;;;;;;;;;;;;;;;354344;27;853;-66
2022/11/02 00:02:09;;;;;;;;;;;;;;;;;;354326;27;924;-67
2022/11/02 00:02:19;;;;;;;;;;;;;;;;;;354416;27;852;-67
2022/11/02 00:02:30;;;;;;;;;;;;;;;;;;354300;27;916;-67
2022/11/02 00:02:40;;;;;;;;;;;;;;;;;;354372;27;1007;-67
2022/11/02 00:02:50;;;;;;;;;;;;;;;;;;354243;27;990;-67
2022/11/02 00:03:01;;;;;;;;;;;;;;;;;;354318;27;1079;-67
2022/11/02 00:03:11;;;;;;;;;;;;;;;;;;354374;27;788;-68
2022/11/02 00:03:21;;;;;;;;;;;;;;;;;;354305;27;810;-68
2022/11/02 00:03:32;;;;;;;;;;;;;;;;;;354290;27;935;-67
2022/11/02 00:03:42;;;;;;;;;;;;;;;;;;354349;27;857;-68
2022/11/02 00:03:52;;;;;;;;;;;;;;;;;;354266;27;1984;-68
2022/11/02 00:04:02;;;;;;;;;;;;;;;;;;354346;27;979;-67
2022/11/02 00:04:13;;;;;;;;;;;;;;;;;;354306;27;936;-68
2022/11/02 00:04:23;;;;;;;;;;;;;;;;;;354344;27;1003;-67
2022/11/02 00:04:33;;;;;;;;;;;;;;;;;;353861;27;2089;-68
2022/11/02 00:04:43;;;;;;;;;;;;;;;;;;355500;27;799;-67
2022/11/02 00:04:53;;;;;;;;;;;;;;;;;;355654;27;968;-66
2022/11/02 00:05:04;;;;;;;;;;;;;;;;;;355709;27;873;-66
2022/11/02 00:05:14;;;;;;;;;;;;;;;;;;355776;27;935;-66
2022/11/02 00:05:24;;;;;;;;;;;;;;;;;;355811;27;868;-67
2022/11/02 00:05:35;;;;;;;;;;;;;;;;;;355741;27;782;-67
2022/11/02 00:05:45;;;;;;;;;;;;;;;;;;355779;27;1007;-67
2022/11/02 00:05:55;;;;;;;;;;;;;;;;;;355752;27;940;-67
2022/11/02 00:06:05;;;;;;;;;;;;;;;;;;355712;27;851;-66
2022/11/02 00:06:16;;;;;;;;;;;;;;;;;;355772;27;976;-67
2022/11/02 00:06:26;;;;;;;;;;;;;;;;;;355754;27;963;-67
2022/11/02 00:06:36;;;;;;;;;;;;;;;;;;355649;27;875;-67
2022/11/02 00:06:46;;;;;;;;;;;;;;;;;;355770;27;971;-67
2022/11/02 00:06:56;;;;;;;;;;;;;;;;;;355709;27;860;-68
2022/11/02 00:07:07;;;;;;;;;;;;;;;;;;353752;27;1493;-68
2022/11/02 00:07:17;;;;;;;;;;;;;;;;;;354279;27;964;-68
2022/11/02 00:07:27;;;;;;;;;;;;;;;;;;354337;27;868;-68
2022/11/02 00:07:37;;;;;;;;;;;;;;;;;;354242;27;841;-67
2022/11/02 00:07:48;;;;;;;;;;;;;;;;;;354346;27;948;-67
2022/11/02 00:07:58;;;;;;;;;;;;;;;;;;354349;27;959;-67
2022/11/02 00:08:08;;;;;;;;;;;;;;;;;;354301;27;937;-67
2022/11/02 00:08:18;;;;;;;;;;;;;;;;;;354331;27;892;-67
2022/11/02 00:08:28;;;;;;;;;;;;;;;;;;354309;27;899;-67
2022/11/02 00:08:39;;;;;;;;;;;;;;;;;;354244;27;1063;-67
2022/11/02 00:08:49;;;;;;;;;;;;;;;;;;354282;27;805;-67
2022/11/02 00:08:59;;;;;;;;;;;;;;;;;;354309;27;841;-68
2022/11/02 00:09:09;;;;;;;;;;;;;;;;;;354289;27;857;-68
2022/11/02 00:09:19;;;;;;;;;;;;;;;;;;354341;27;924;-67
2022/11/02 00:09:30;;;;;;;;;;;;;;;;;;354348;27;852;-68
2022/11/02 00:09:40;;;;;;;;;;;;;;;;;;354262;27;939;-67
2022/11/02 00:09:50;;;;;;;;;;;;;;;;;;354336;27;908;-65
2022/11/02 00:10:00;;;;;;;;;;;;;;;;;;354363;27;860;-68
2022/11/02 00:10:10;;;;;;;;;;;;;;;;;;354304;27;916;-67
2022/11/02 00:10:22;;;;;;;;;;;;;;;;;;354397;27;1717;-68
2022/11/02 00:10:32;;;;;;;;;;;;;;;;;;354238;27;1173;-67
2022/11/02 00:10:42;;;;;;;;;;;;;;;;;;354268;27;829;-67
2022/11/02 00:10:52;;;;;;;;;;;;;;;;;;354370;27;916;-67
2022/11/02 00:11:02;;;;;;;;;;;;;;;;;;354285;27;999;-67
2022/11/02 00:11:13;;;;;;;;;;;;;;;;;;354263;27;1053;-67
2022/11/02 00:11:23;;;;;;;;;;;;;;;;;;354307;27;1011;-67
2022/11/02 00:11:33;;;;;;;;;;;;;;;;;;354314;27;920;-67
2022/11/02 00:11:43;;;;;;;;;;;;;;;;;;354231;27;809;-67
2022/11/02 00:11:53;;;;;;;;;;;;;;;;;;354358;27;778;-67
2022/11/02 00:12:04;;;;;;;;;;;;;;;;;;354365;27;975;-68
2022/11/02 00:12:14;;;;;;;;;;;;;;;;;;354291;27;944;-68
2022/11/02 00:12:24;;;;;;;;;;;;;;;;;;354326;27;794;-67
2022/11/02 00:12:34;;;;;;;;;;;;;;;;;;354337;27;979;-67
2022/11/02 00:12:45;;;;;;;;;;;;;;;;;;354290;27;1022;-67
2022/11/02 00:12:55;;;;;;;;;;;;;;;;;;354370;27;971;-67
2022/11/02 00:13:05;;;;;;;;;;;;;;;;;;354309;27;920;-67
2022/11/02 00:13:16;;;;;;;;;;;;;;;;;;354248;27;848;-67
2022/11/02 00:13:26;;;;;;;;;;;;;;;;;;354316;27;916;-66
2022/11/02 00:13:36;;;;;;;;;;;;;;;;;;354324;27;912;-67
2022/11/02 00:13:46;;;;;;;;;;;;;;;;;;354255;27;944;-67
2022/11/02 00:13:57;;;;;;;;;;;;;;;;;;354308;27;924;-67
2022/11/02 00:14:07;;;;;;;;;;;;;;;;;;354363;27;920;-67
2022/11/02 00:14:17;;;;;;;;;;;;;;;;;;354267;27;928;-67
2022/11/02 00:14:27;;;;;;;;;;;;;;;;;;354332;27;952;-67
2022/11/02 00:14:37;;;;;;;;;;;;;;;;;;354329;27;643;-67
2022/11/02 00:14:47;;;;;;;;;;;;;;;;;;354260;27;940;-67
2022/11/02 00:14:58;;;;;;;;;;;;;;;;;;354371;27;813;-66
2022/11/02 00:15:08;;;;;;;;;;;;;;;;;;354320;27;1027;-67
2022/11/02 00:15:18;;;;;;;;;;;;;;;;;;354113;27;929;-67
2022/11/02 00:15:31;;;;;;;;;;;;;;;;;;354373;27;837;-66
2022/11/02 00:15:41;;;;;;;;;;;;;;;;;;354367;27;990;-67
2022/11/02 00:15:51;;;;;;;;;;;;;;;;;;354354;27;805;-67
2022/11/02 00:16:03;;;;;;;;;;;;;;;;;;354285;27;1043;-68
2022/11/02 00:16:14;;;;;;;;;;;;;;;;;;354357;27;920;-67
2022/11/02 00:16:25;;;;;;;;;;;;;;;;;;354344;27;846;-67
2022/11/02 00:16:36;;;;;;;;;;;;;;;;;;354342;27;924;-67
2022/11/02 00:16:46;;;;;;;;;;;;;;;;;;354264;27;908;-67
2022/11/02 00:16:57;;;;;;;;;;;;;;;;;;354358;27;817;-67
2022/11/02 00:17:07;;;;;;;;;;;;;;;;;;354318;27;841;-68
2022/11/02 00:17:17;;;;;;;;;;;;;;;;;;354307;27;1007;-67
2022/11/02 00:17:28;;;;;;;;;;;;;;;;;;354281;27;861;-67
2022/11/02 00:17:40;;;;;;;;;;;;;;;;;;354371;27;793;-67
2022/11/02 00:17:52;;;;;;;;;;;;;;;;;;354341;27;857;-67
2022/11/02 00:18:03;;;;;;;;;;;;;;;;;;354352;27;1002;-67
2022/11/02 00:18:14;;;;;;;;;;;;;;;;;;354332;27;928;-67
2022/11/02 00:18:24;;;;;;;;;;;;;;;;;;354349;27;935;-67
2022/11/02 00:18:35;;;;;;;;;;;;;;;;;;354371;27;951;-67
2022/11/02 00:18:47;;;;;;;;;;;;;;;;;;354364;27;790;-67
2022/11/02 00:18:59;;;;;;;;;;;;;;;;;;354280;27;1015;-67
2022/11/02 00:19:09;;;;;;;;;;;;;;;;;;354354;27;963;-67
2022/11/02 00:19:20;;;;;;;;;;;;;;;;;;354263;27;1063;-67
2022/11/02 00:19:30;;;;;;;;;;;;;;;;;;354284;27;802;-67
2022/11/02 00:19:40;;;;;;;;;;;;;;;;;;355552;27;1338;-68
2022/11/02 00:19:50;;;;;;;;;;;;;;;;;;355744;27;773;-67
2022/11/02 00:20:02;;;;;;;;;;;;;;;;;;355722;27;975;-67
2022/11/02 00:20:14;;;;;;;;;;;;;;;;;;355768;27;1070;-67
2022/11/02 00:20:25;;;;;;;;;;;;;;;;;;355725;27;939;-68
2022/11/02 00:20:36;;;;;;;;;;;;;;;;;;355763;27;983;-67
2022/11/02 00:20:46;;;;;;;;;;;;;;;;;;355728;27;936;-67
2022/11/02 00:20:57;;;;;;;;;;;;;;;;;;355764;27;827;-67
2022/11/02 00:21:07;;;;;;;;;;;;;;;;;;355685;27;948;-67
2022/11/02 00:21:20;;;;;;;;;;;;;;;;;;355750;27;821;-67
2022/11/02 00:21:30;;;;;;;;;;;;;;;;;;355723;27;908;-68
2022/11/02 00:21:41;;;;;;;;;;;;;;;;;;355610;27;1099;-67
2022/11/02 00:21:51;;;;;;;;;;;;;;;;;;354581;27;1439;-67
2022/11/02 00:22:02;;;;;;;;;;;;;;;;;;355727;27;967;-67
2022/11/02 00:22:12;;;;;;;;;;;;;;;;;;355745;27;916;-68
2022/11/02 00:22:22;;;;;;;;;;;;;;;;;;355773;27;808;-67
2022/11/02 00:22:33;;;;;;;;;;;;;;;;;;355760;27;1006;-67
2022/11/02 00:22:44;;;;;;;;;;;;;;;;;;355706;27;932;-67
2022/11/02 00:22:55;;;;;;;;;;;;;;;;;;355688;27;1002;-68
2022/11/02 00:23:09;;;;;;;;;;;;;;;;;;355766;27;940;-67
2022/11/02 00:23:19;;;;;;;;;;;;;;;;;;355767;27;943;-67
2022/11/02 00:23:30;;;;;;;;;;;;;;;;;;355682;27;960;-67
2022/11/02 00:23:41;;;;;;;;;;;;;;;;;;355441;27;904;-68
2022/11/02 00:23:51;;;;;;;;;;;;;;;;;;355471;27;1905;-67
2022/11/02 00:24:03;;;;;;;;;;;;;;;;;;355489;27;813;-67
2022/11/02 00:24:13;;;;;;;;;;;;;;;;;;355580;27;998;-67
2022/11/02 00:24:24;;;;;;;;;;;;;;;;;;355772;27;973;-67
2022/11/02 00:24:34;;;;;;;;;;;;;;;;;;355764;27;880;-67
2022/11/02 00:24:44;;;;;;;;;;;;;;;;;;355698;27;919;-67
2022/11/02 00:24:55;;;;;;;;;;;;;;;;;;355714;27;915;-68
2022/11/02 00:25:06;;;;;;;;;;;;;;;;;;355711;27;960;-67
2022/11/02 00:25:17;;;;;;;;;;;;;;;;;;355771;27;868;-67
2022/11/02 00:25:28;;;;;;;;;;;;;;;;;;355756;27;936;-68
2022/11/02 00:25:40;;;;;;;;;;;;;;;;;;355687;27;920;-67
2022/11/02 00:25:51;;;;;;;;;;;;;;;;;;355749;27;924;-68
2022/11/02 00:26:02;;;;;;;;;;;;;;;;;;355715;27;991;-68
2022/11/02 00:26:12;;;;;;;;;;;;;;;;;;355738;27;982;-67
2022/11/02 00:26:23;;;;;;;;;;;;;;;;;;355757;27;1093;-67
2022/11/02 00:26:35;;;;;;;;;;;;;;;;;;355794;27;963;-68
2022/11/02 00:26:45;;;;;;;;;;;;;;;;;;355721;27;961;-68
2022/11/02 00:26:55;;;;;;;;;;;;;;;;;;355784;27;825;-67
2022/11/02 00:27:06;;;;;;;;;;;;;;;;;;355731;27;781;-67
2022/11/02 00:27:16;;;;;;;;;;;;;;;;;;355708;27;975;-67
2022/11/02 00:27:27;;;;;;;;;;;;;;;;;;355795;27;1746;-68
2022/11/02 00:27:38;;;;;;;;;;;;;;;;;;355744;27;916;-68
2022/11/02 00:27:49;;;;;;;;;;;;;;;;;;355663;27;920;-67
2022/11/02 00:27:59;;;;;;;;;;;;;;;;;;355745;27;908;-68
2022/11/02 00:28:09;;;;;;;;;;;;;;;;;;355733;27;956;-68
2022/11/02 00:28:20;;;;;;;;;;;;;;;;;;355691;27;992;-68
2022/11/02 00:28:30;;;;;;;;;;;;;;;;;;355749;27;940;-67
2022/11/02 00:28:40;;;;;;;;;;;;;;;;;;355728;27;1102;-68
2022/11/02 00:28:51;;;;;;;;;;;;;;;;;;355702;27;980;-67
2022/11/02 00:29:03;;;;;;;;;;;;;;;;;;355708;27;911;-67
2022/11/02 00:29:13;;;;;;;;;;;;;;;;;;355727;27;825;-68
2022/11/02 00:29:23;;;;;;;;;;;;;;;;;;355697;27;912;-67
2022/11/02 00:29:34;;;;;;;;;;;;;;;;;;355772;27;920;-67
2022/11/02 00:29:44;;;;;;;;;;;;;;;;;;355765;27;920;-67
2022/11/02 00:29:54;;;;;;;;;;;;;;;;;;355644;27;924;-67
2022/11/02 00:30:04;;;;;;;;;;;;;;;;;;355751;27;805;-67
2022/11/02 00:30:15;;;;;;;;;;;;;;;;;;355650;27;1024;-67
2022/11/02 00:30:25;;;;;;;;;;;;;;;;;;355711;27;998;-68
2022/11/02 00:30:36;;;;;;;;;;;;;;;;;;355701;27;1135;-68
2022/11/02 00:30:46;;;;;;;;;;;;;;;;;;355742;27;872;-67
2022/11/02 00:30:57;;;;;;;;;;;;;;;;;;355772;27;914;-68
2022/11/02 00:31:07;;;;;;;;;;;;;;;;;;355673;27;1010;-68
2022/11/02 00:31:17;;;;;;;;;;;;;;;;;;355708;27;838;-67
2022/11/02 00:31:27;;;;;;;;;;;;;;;;;;355746;27;836;-68
2022/11/02 00:31:38;;;;;;;;;;;;;;;;;;355697;27;979;-68
2022/11/02 00:31:48;;;;;;;;;;;;;;;;;;354331;27;1384;-67
2022/11/02 00:31:59;;;;;;;;;;;;;;;;;;354040;27;1112;-67
2022/11/02 00:32:09;;;;;;;;;;;;;;;;;;354281;27;971;-68
2022/11/02 00:32:19;;;;;;;;;;;;;;;;;;354308;27;1007;-68
2022/11/02 00:32:29;;;;;;;;;;;;;;;;;;354255;27;928;-68
2022/11/02 00:32:39;;;;;;;;;;;;;;;;;;354320;27;872;-68
2022/11/02 00:32:50;;;;;;;;;;;;;;;;;;354294;27;971;-68
2022/11/02 00:33:00;;;;;;;;;;;;;;;;;;354319;27;963;-68
2022/11/02 00:33:11;;;;;;;;;;;;;;;;;;354201;27;820;-68
2022/11/02 00:33:21;;;;;;;;;;;;;;;;;;354095;27;1001;-68
2022/11/02 00:33:31;;;;;;;;;;;;;;;;;;354281;27;983;-68
2022/11/02 00:33:41;;;;;;;;;;;;;;;;;;354302;27;840;-68
2022/11/02 00:33:51;;;;;;;;;;;;;;;;;;354248;27;915;-68
2022/11/02 00:34:01;;;;;;;;;;;;;;;;;;354239;27;853;-68
2022/11/02 00:34:12;;;;;;;;;;;;;;;;;;354266;27;900;-67
2022/11/02 00:34:22;;;;;;;;;;;;;;;;;;354261;27;1055;-68
2022/11/02 00:34:32;;;;;;;;;;;;;;;;;;353800;27;1900;-68
2022/11/02 00:34:42;;;;;;;;;;;;;;;;;;354977;27;990;-68
2022/11/02 00:34:53;;;;;;;;;;;;;;;;;;355715;27;928;-68
2022/11/02 00:35:03;;;;;;;;;;;;;;;;;;355666;27;1019;-68
2022/11/02 00:35:13;;;;;;;;;;;;;;;;;;355643;27;987;-67
2022/11/02 00:35:23;;;;;;;;;;;;;;;;;;355672;27;1086;-67
2022/11/02 00:35:34;;;;;;;;;;;;;;;;;;355733;27;883;-68
2022/11/02 00:35:45;;;;;;;;;;;;;;;;;;355684;27;1032;-68
2022/11/02 00:35:55;;;;;;;;;;;;;;;;;;355724;27;983;-68
2022/11/02 00:36:05;;;;;;;;;;;;;;;;;;355734;27;780;-68
2022/11/02 00:36:16;;;;;;;;;;;;;;;;;;355669;27;986;-68
2022/11/02 00:36:27;;;;;;;;;;;;;;;;;;354953;27;1998;-68
2022/11/02 00:36:37;;;;;;;;;;;;;;;;;;354129;27;1547;-68
2022/11/02 00:36:47;;;;;;;;;;;;;;;;;;355749;27;935;-68
2022/11/02 00:36:57;;;;;;;;;;;;;;;;;;355755;27;1100;-67
2022/11/02 00:37:07;;;;;;;;;;;;;;;;;;355767;27;974;-67
2022/11/02 00:37:18;;;;;;;;;;;;;;;;;;355616;27;1070;-67
2022/11/02 00:37:28;;;;;;;;;;;;;;;;;;355743;27;1189;-68
2022/11/02 00:37:38;;;;;;;;;;;;;;;;;;355695;27;1086;-67
2022/11/02 00:37:48;;;;;;;;;;;;;;;;;;355754;27;826;-67
2022/11/02 00:37:58;;;;;;;;;;;;;;;;;;355662;27;924;-68
2022/11/02 00:38:09;;;;;;;;;;;;;;;;;;355655;27;1016;-68
2022/11/02 00:38:19;;;;;;;;;;;;;;;;;;355695;27;836;-68
2022/11/02 00:38:30;;;;;;;;;;;;;;;;;;355741;27;974;-68
2022/11/02 00:38:41;;;;;;;;;;;;;;;;;;354535;27;1443;-68
2022/11/02 00:38:51;;;;;;;;;;;;;;;;;;355745;27;955;-68
2022/11/02 00:39:01;;;;;;;;;;;;;;;;;;355563;27;1167;-68
2022/11/02 00:39:11;;;;;;;;;;;;;;;;;;355752;27;864;-68
2022/11/02 00:39:22;;;;;;;;;;;;;;;;;;355640;27;960;-68
2022/11/02 00:39:32;;;;;;;;;;;;;;;;;;355763;27;904;-66
2022/11/02 00:39:42;;;;;;;;;;;;;;;;;;354193;27;924;-68
2022/11/02 00:39:52;;;;;;;;;;;;;;;;;;354202;27;931;-68
2022/11/02 00:40:03;;;;;;;;;;;;;;;;;;354198;27;914;-68
2022/11/02 00:40:13;;;;;;;;;;;;;;;;;;352278;28;1302;-68
2022/11/02 00:40:23;;;;;;;;;;;;;;;;;;352764;28;931;-67
2022/11/02 00:40:33;;;;;;;;;;;;;;;;;;352761;28;754;-68
2022/11/02 00:40:44;;;;;;;;;;;;;;;;;;352762;28;944;-67
2022/11/02 00:40:54;;;;;;;;;;;;;;;;;;352815;28;1050;-68
2022/11/02 00:41:04;;;;;;;;;;;;;;;;;;352822;28;1046;-67
2022/11/02 00:41:16;;;;;;;;;;;;;;;;;;352801;28;904;-67
2022/11/02 00:41:26;;;;;;;;;;;;;;;;;;352756;28;813;-68
2022/11/02 00:41:37;;;;;;;;;;;;;;;;;;353327;27;892;-67
2022/11/02 00:41:47;;;;;;;;;;;;;;;;;;354286;27;753;-68
2022/11/02 00:41:57;;;;;;;;;;;;;;;;;;354264;27;919;-68
2022/11/02 00:42:08;;;;;;;;;;;;;;;;;;353826;27;1345;-67
2022/11/02 00:42:18;;;;;;;;;;;;;;;;;;354199;27;936;-67
2022/11/02 00:42:28;;;;;;;;;;;;;;;;;;354330;27;782;-68
2022/11/02 00:42:38;;;;;;;;;;;;;;;;;;354226;27;912;-68
2022/11/02 00:42:48;;;;;;;;;;;;;;;;;;354328;27;1023;-68
2022/11/02 00:42:58;;;;;;;;;;;;;;;;;;354296;27;979;-68
2022/11/02 00:43:09;;;;;;;;;;;;;;;;;;354347;27;1015;-66
2022/11/02 00:43:19;;;;;;;;;;;;;;;;;;354227;27;987;-67
2022/11/02 00:43:29;;;;;;;;;;;;;;;;;;354273;27;956;-67
2022/11/02 00:43:39;;;;;;;;;;;;;;;;;;354273;27;979;-68
2022/11/02 00:43:49;;;;;;;;;;;;;;;;;;354219;27;1913;-68
2022/11/02 00:44:00;;;;;;;;;;;;;;;;;;354219;27;1015;-67
2022/11/02 00:44:10;;;;;;;;;;;;;;;;;;354253;27;1035;-68
2022/11/02 00:44:20;;;;;;;;;;;;;;;;;;354280;27;845;-67
2022/11/02 00:44:30;;;;;;;;;;;;;;;;;;354258;27;917;-67
2022/11/02 00:44:41;;;;;;;;;;;;;;;;;;354253;27;916;-68
2022/11/02 00:44:51;;;;;;;;;;;;;;;;;;354341;27;987;-68
2022/11/02 00:45:01;;;;;;;;;;;;;;;;;;354280;27;908;-68
2022/11/02 00:45:11;;;;;;;;;;;;;;;;;;354355;27;895;-67
2022/11/02 00:45:21;;;;;;;;;;;;;;;;;;354183;27;920;-68
2022/11/02 00:45:32;;;;;;;;;;;;;;;;;;354284;27;932;-68
2022/11/02 00:45:42;;;;;;;;;;;;;;;;;;354303;27;781;-68
2022/11/02 00:45:52;;;;;;;;;;;;;;;;;;354273;27;1002;-68
2022/11/02 00:46:02;;;;;;;;;;;;;;;;;;354263;27;876;-68
2022/11/02 00:46:13;;;;;;;;;;;;;;;;;;354276;27;964;-68
2022/11/02 00:46:23;;;;;;;;;;;;;;;;;;354299;27;801;-68
2022/11/02 00:46:33;;;;;;;;;;;;;;;;;;354240;27;932;-68
2022/11/02 00:46:43;;;;;;;;;;;;;;;;;;354181;27;991;-67
2022/11/02 00:46:54;;;;;;;;;;;;;;;;;;354301;27;832;-67
2022/11/02 00:47:04;;;;;;;;;;;;;;;;;;354284;27;928;-67
2022/11/02 00:47:15;;;;;;;;;;;;;;;;;;354278;27;991;-67
2022/11/02 00:47:25;;;;;;;;;;;;;;;;;;354183;27;987;-68
2022/11/02 00:47:35;;;;;;;;;;;;;;;;;;354293;27;781;-67
2022/11/02 00:47:46;;;;;;;;;;;;;;;;;;354277;27;931;-68
2022/11/02 00:47:56;;;;;;;;;;;;;;;;;;354264;27;773;-67
2022/11/02 00:48:06;;;;;;;;;;;;;;;;;;354210;27;987;-67
2022/11/02 00:48:16;;;;;;;;;;;;;;;;;;354278;27;848;-67
2022/11/02 00:48:26;;;;;;;;;;;;;;;;;;354219;27;952;-68
2022/11/02 00:48:37;;;;;;;;;;;;;;;;;;354233;27;895;-68
2022/11/02 00:48:47;;;;;;;;;;;;;;;;;;354227;27;979;-68
2022/11/02 00:48:57;;;;;;;;;;;;;;;;;;354291;27;863;-68
2022/11/02 00:49:07;;;;;;;;;;;;;;;;;;354303;27;845;-67
2022/11/02 00:49:17;;;;;;;;;;;;;;;;;;354264;27;971;-67
2022/11/02 00:49:28;;;;;;;;;;;;;;;;;;354186;27;1012;-67
2022/11/02 00:49:38;;;;;;;;;;;;;;;;;;354286;27;908;-68
2022/11/02 00:49:48;;;;;;;;;;;;;;;;;;354285;27;904;-68
2022/11/02 00:49:58;;;;;;;;;;;;;;;;;;354267;27;1092;-67
2022/11/02 00:50:09;;;;;;;;;;;;;;;;;;354225;27;975;-68
2022/11/02 00:50:19;;;;;;;;;;;;;;;;;;354259;27;979;-67
2022/11/02 00:50:29;;;;;;;;;;;;;;;;;;354241;27;944;-68
2022/11/02 00:50:40;;;;;;;;;;;;;;;;;;354259;27;936;-67
2022/11/02 00:50:50;;;;;;;;;;;;;;;;;;354202;27;952;-68
2022/11/02 00:51:00;;;;;;;;;;;;;;;;;;354265;27;848;-67
2022/11/02 00:51:10;;;;;;;;;;;;;;;;;;354263;27;1050;-68
2022/11/02 00:51:21;;;;;;;;;;;;;;;;;;354212;27;809;-68
2022/11/02 00:51:31;;;;;;;;;;;;;;;;;;354276;27;900;-68
2022/11/02 00:51:42;;;;;;;;;;;;;;;;;;354231;27;1317;-67
2022/11/02 00:51:52;;;;;;;;;;;;;;;;;;355657;27;935;-67
2022/11/02 00:52:02;;;;;;;;;;;;;;;;;;355757;27;832;-68
2022/11/02 00:52:12;;;;;;;;;;;;;;;;;;355722;27;978;-67
2022/11/02 00:52:23;;;;;;;;;;;;;;;;;;355672;27;1011;-67
2022/11/02 00:52:33;;;;;;;;;;;;;;;;;;355672;27;809;-67
2022/11/02 00:52:43;;;;;;;;;;;;;;;;;;355707;27;1011;-67
2022/11/02 00:52:53;;;;;;;;;;;;;;;;;;355661;27;1019;-67
2022/11/02 00:53:03;;;;;;;;;;;;;;;;;;355727;27;780;-66
2022/11/02 00:53:14;;;;;;;;;;;;;;;;;;355676;27;996;-67
2022/11/02 00:53:24;;;;;;;;;;;;;;;;;;355678;27;844;-67
2022/11/02 00:53:34;;;;;;;;;;;;;;;;;;355682;27;1026;-67
2022/11/02 00:53:44;;;;;;;;;;;;;;;;;;355694;27;931;-67
2022/11/02 00:53:54;;;;;;;;;;;;;;;;;;355698;27;890;-67
2022/11/02 00:54:05;;;;;;;;;;;;;;;;;;355714;27;912;-67
2022/11/02 00:54:15;;;;;;;;;;;;;;;;;;355717;27;469;-67
2022/11/02 00:54:25;;;;;;;;;;;;;;;;;;355639;27;907;-67
2022/11/02 00:54:35;;;;;;;;;;;;;;;;;;355665;27;998;-67
2022/11/02 00:54:45;;;;;;;;;;;;;;;;;;355713;27;940;-67
2022/11/02 00:54:56;;;;;;;;;;;;;;;;;;355614;27;923;-68
2022/11/02 00:55:07;;;;;;;;;;;;;;;;;;355736;27;931;-67
2022/11/02 00:55:18;;;;;;;;;;;;;;;;;;355775;27;829;-68
2022/11/02 00:55:28;;;;;;;;;;;;;;;;;;355646;27;998;-67
2022/11/02 00:55:38;;;;;;;;;;;;;;;;;;355677;27;916;-67
2022/11/02 00:55:48;;;;;;;;;;;;;;;;;;355666;27;844;-68
2022/11/02 00:55:58;;;;;;;;;;;;;;;;;;355672;27;904;-68
2022/11/02 00:56:09;;;;;;;;;;;;;;;;;;355737;27;863;-67
2022/11/02 00:56:19;;;;;;;;;;;;;;;;;;355712;27;966;-68
2022/11/02 00:56:29;;;;;;;;;;;;;;;;;;355710;27;1054;-67
2022/11/02 00:56:39;;;;;;;;;;;;;;;;;;355622;27;1012;-67
2022/11/02 00:56:49;;;;;;;;;;;;;;;;;;355493;27;1123;-67
2022/11/02 00:57:00;;;;;;;;;;;;;;;;;;355626;27;959;-68
2022/11/02 00:57:10;;;;;;;;;;;;;;;;;;355732;27;805;-68
2022/11/02 00:57:20;;;;;;;;;;;;;;;;;;355668;27;931;-67
2022/11/02 00:57:30;;;;;;;;;;;;;;;;;;355657;27;820;-68
2022/11/02 00:57:41;;;;;;;;;;;;;;;;;;355696;27;932;-68
2022/11/02 00:57:52;;;;;;;;;;;;;;;;;;355688;27;1690;-68
2022/11/02 00:58:03;;;;;;;;;;;;;;;;;;355660;27;1018;-67
2022/11/02 00:58:13;;;;;;;;;;;;;;;;;;355712;27;943;-68
2022/11/02 00:58:23;;;;;;;;;;;;;;;;;;355661;27;1011;-68
2022/11/02 00:58:33;;;;;;;;;;;;;;;;;;355607;27;1004;-68
2022/11/02 00:58:44;;;;;;;;;;;;;;;;;;355656;27;1016;-67
2022/11/02 00:58:54;;;;;;;;;;;;;;;;;;355690;27;960;-68
2022/11/02 00:59:04;;;;;;;;;;;;;;;;;;355606;27;1003;-68
2022/11/02 00:59:14;;;;;;;;;;;;;;;;;;355670;27;960;-67
2022/11/02 00:59:24;;;;;;;;;;;;;;;;;;355702;27;864;-68
2022/11/02 00:59:34;;;;;;;;;;;;;;;;;;355658;27;932;-68
2022/11/02 00:59:45;;;;;;;;;;;;;;;;;;355653;27;1002;-67
2022/11/02 00:59:55;;;;;;;;;;;;;;;;;;355729;27;925;-67
2022/11/02 01:00:06;;;;;;;;;;;;;;;;;;355685;27;931;-68
2022/11/02 01:00:17;;;;;;;;;;;;;;;;;;355688;27;901;-67
2022/11/02 01:00:27;;;;;;;;;;;;;;;;;;355739;27;871;-67
2022/11/02 01:00:37;;;;;;;;;;;;;;;;;;355649;27;916;-68
2022/11/02 01:00:47;;;;;;;;;;;;;;;;;;355640;27;970;-68
2022/11/02 01:00:57;;;;;;;;;;;;;;;;;;355720;27;829;-68
2022/11/02 01:01:08;;;;;;;;;;;;;;;;;;355659;27;974;-68
2022/11/02 01:01:18;;;;;;;;;;;;;;;;;;355683;27;807;-68
2022/11/02 01:01:28;;;;;;;;;;;;;;;;;;355703;27;908;-68
2022/11/02 01:01:38;;;;;;;;;;;;;;;;;;355669;27;928;-68
2022/11/02 01:01:48;;;;;;;;;;;;;;;;;;355690;27;912;-68
2022/11/02 01:01:59;;;;;;;;;;;;;;;;;;355740;27;888;-68
2022/11/02 01:02:09;;;;;;;;;;;;;;;;;;355711;27;849;-68
2022/11/02 01:02:20;;;;;;;;;;;;;;;;;;355732;27;773;-68
2022/11/02 01:02:31;;;;;;;;;;;;;;;;;;355711;27;932;-67
2022/11/02 01:02:41;;;;;;;;;;;;;;;;;;355666;27;836;-67
2022/11/02 01:02:52;;;;;;;;;;;;;;;;;;355687;27;967;-68
2022/11/02 01:03:02;;;;;;;;;;;;;;;;;;354193;27;812;-68
2022/11/02 01:03:12;;;;;;;;;;;;;;;;;;354125;27;1058;-68
2022/11/02 01:03:22;;;;;;;;;;;;;;;;;;354158;27;789;-68
2022/11/02 01:03:32;;;;;;;;;;;;;;;;;;354182;27;924;-68
2022/11/02 01:03:43;;;;;;;;;;;;;;;;;;354152;27;923;-68
2022/11/02 01:03:54;;;;;;;;;;;;;;;;;;354137;27;1909;-68
2022/11/02 01:04:04;;;;;;;;;;;;;;;;;;354162;27;1010;-67
2022/11/02 01:04:16;;;;;;;;;;;;;;;;;;354125;27;1035;-68
2022/11/02 01:04:26;;;;;;;;;;;;;;;;;;354186;27;785;-67
2022/11/02 01:04:36;;;;;;;;;;;;;;;;;;353281;27;1995;-68
2022/11/02 01:04:46;;;;;;;;;;;;;;;;;;353127;27;1574;-68
2022/11/02 01:04:57;;;;;;;;;;;;;;;;;;354750;27;872;-67
2022/11/02 01:05:08;;;;;;;;;;;;;;;;;;355690;27;919;-68
2022/11/02 01:05:18;;;;;;;;;;;;;;;;;;355631;27;986;-68
2022/11/02 01:05:28;;;;;;;;;;;;;;;;;;355636;27;932;-67
2022/11/02 01:05:38;;;;;;;;;;;;;;;;;;355705;27;868;-67
2022/11/02 01:05:48;;;;;;;;;;;;;;;;;;355691;27;998;-67
2022/11/02 01:06:05;;;;;;;;;;;;;;;;;;355679;27;986;-67
2022/11/02 01:06:15;;;;;;;;;;;;;;;;;;355673;27;948;-68
2022/11/02 01:06:26;;;;;;;;;;;;;;;;;;354468;27;1352;-68
2022/11/02 01:06:36;;;;;;;;;;;;;;;;;;354201;27;1071;-68
2022/11/02 01:06:46;;;;;;;;;;;;;;;;;;354230;27;915;-68
2022/11/02 01:06:56;;;;;;;;;;;;;;;;;;354290;27;923;-68
2022/11/02 01:07:07;;;;;;;;;;;;;;;;;;354272;27;908;-68
2022/11/02 01:07:17;;;;;;;;;;;;;;;;;;354246;27;940;-68
2022/11/02 01:07:27;;;;;;;;;;;;;;;;;;354103;27;1012;-67
2022/11/02 01:07:38;;;;;;;;;;;;;;;;;;354288;27;924;-68
2022/11/02 01:07:48;;;;;;;;;;;;;;;;;;354226;27;936;-68
2022/11/02 01:07:58;;;;;;;;;;;;;;;;;;354245;27;983;-68
2022/11/02 01:08:08;;;;;;;;;;;;;;;;;;354224;27;940;-68
2022/11/02 01:08:19;;;;;;;;;;;;;;;;;;354273;27;778;-67
2022/11/02 01:08:29;;;;;;;;;;;;;;;;;;353983;27;1345;-67
2022/11/02 01:08:39;;;;;;;;;;;;;;;;;;354149;27;1331;-67
2022/11/02 01:08:49;;;;;;;;;;;;;;;;;;354198;27;972;-68
2022/11/02 01:09:00;;;;;;;;;;;;;;;;;;354264;27;959;-68
2022/11/02 01:09:10;;;;;;;;;;;;;;;;;;354287;27;912;-68
2022/11/02 01:09:20;;;;;;;;;;;;;;;;;;354267;27;877;-67
2022/11/02 01:09:32;;;;;;;;;;;;;;;;;;354140;27;900;-68
2022/11/02 01:09:42;;;;;;;;;;;;;;;;;;354255;27;986;-68
2022/11/02 01:09:52;;;;;;;;;;;;;;;;;;354262;27;912;-67
2022/11/02 01:10:03;;;;;;;;;;;;;;;;;;354265;27;931;-68
2022/11/02 01:10:13;;;;;;;;;;;;;;;;;;354223;27;896;-68
2022/11/02 01:10:25;;;;;;;;;;;;;;;;;;354233;27;927;-67
2022/11/02 01:10:35;;;;;;;;;;;;;;;;;;354246;27;1019;-67
2022/11/02 01:10:45;;;;;;;;;;;;;;;;;;354183;27;951;-67
2022/11/02 01:10:55;;;;;;;;;;;;;;;;;;353777;27;1289;-66
2022/11/02 01:11:13;;;;;;;;;;;;;;;;;;354541;27;1300;-68
2022/11/02 01:11:23;;;;;;;;;;;;;;;;;;355688;27;912;-67
2022/11/02 01:11:34;;;;;;;;;;;;;;;;;;355651;27;966;-68
2022/11/02 01:11:44;;;;;;;;;;;;;;;;;;355636;27;1002;-68
2022/11/02 01:11:54;;;;;;;;;;;;;;;;;;355651;27;1096;-68
2022/11/02 01:12:04;;;;;;;;;;;;;;;;;;355694;27;983;-68
2022/11/02 01:12:15;;;;;;;;;;;;;;;;;;355709;27;931;-67
2022/11/02 01:12:25;;;;;;;;;;;;;;;;;;355660;27;1022;-68
2022/11/02 01:12:37;;;;;;;;;;;;;;;;;;355647;27;975;-68
2022/11/02 01:12:47;;;;;;;;;;;;;;;;;;355742;27;931;-68
2022/11/02 01:12:57;;;;;;;;;;;;;;;;;;355662;27;979;-67
2022/11/02 01:13:07;;;;;;;;;;;;;;;;;;355675;27;928;-68
2022/11/02 01:13:18;;;;;;;;;;;;;;;;;;355623;27;876;-68
2022/11/02 01:13:28;;;;;;;;;;;;;;;;;;355686;27;951;-66
2022/11/02 01:13:38;;;;;;;;;;;;;;;;;;355581;27;824;-67
2022/11/02 01:13:49;;;;;;;;;;;;;;;;;;355652;27;915;-68
2022/11/02 01:13:59;;;;;;;;;;;;;;;;;;355645;27;1226;-67
2022/11/02 01:14:09;;;;;;;;;;;;;;;;;;355664;27;852;-67
2022/11/02 01:14:20;;;;;;;;;;;;;;;;;;355680;27;987;-67
2022/11/02 01:14:30;;;;;;;;;;;;;;;;;;355667;27;1227;-67
2022/11/02 01:14:40;;;;;;;;;;;;;;;;;;355695;27;927;-67
2022/11/02 01:14:50;;;;;;;;;;;;;;;;;;355585;27;996;-68
2022/11/02 01:15:02;;;;;;;;;;;;;;;;;;355692;27;991;-67
2022/11/02 01:15:12;;;;;;;;;;;;;;;;;;355685;27;939;-67